PWSweather.com
Personal Weather Stations
Station Observations
PENICUIKWS
PenicuikGB

PenicuikGB

Lat: 55.830932, Lon: -3.224533000000065

Elevation: 166

Station Type: Fine Offset

http://weather.penicuik.org

Latest ConditionsUpdated 6:30:02 AM GMT Friday, May 24, 2019
Currently Today's Max Today's Min Today's Average
Temperature 61.7°F16.5°C 61.7°F16.5°C 46.2°F7.9°C 49.5°F9.7°C
Dew Point 43.9°F6.6°C 44.4°F6.9°C 41.7°F5.4°C 42.9°F6.1°C
Winds 3.7 mph ESE6.0 kmh ESE 5.8 mph -9.3 kmh - - 3.2 mph 5.1 kmh
Wind Gusts 6.0 mph9.7 kmh 11.4 mph18.3 kmh - -
Humidity 52% 85% 52% 79%
Pressure 30.87 in1045.4 mb 30.87 in1045.4 mb 30.84 in1044.4 mb -
Hour Temp Dew Point Humidity Winds Wind Gusts Pressure Precip Precip Rate Daily Precip Total
06:30 AM 61.7°F16.5°C 43.9°F6.6°C 52% 3.7 mph ESE6.0 kmh ESE 6.0 mph9.7 kmh 30.87 in1045.4 mb 0.00 in0.0 mm 0.00 in0.0 mm 0.00 in0.0 mm
06:15 AM 59.2°F15.1°C 43.5°F6.4°C 56% 3.6 mph SE5.8 kmh SE 5.4 mph8.7 kmh 30.87 in1045.4 mb 0.00 in0.0 mm 0.00 in0.0 mm 0.00 in0.0 mm
06:00 AM 59.0°F15.0°C 43.8°F6.6°C 57% 3.4 mph SSW5.5 kmh SSW 5.4 mph8.7 kmh 30.87 in1045.4 mb 0.00 in0.0 mm 0.00 in0.0 mm 0.00 in0.0 mm
05:45 AM 56.8°F13.8°C 44.4°F6.9°C 63% 3.8 mph SE6.1 kmh SE 6.0 mph9.7 kmh 30.86 in1045.0 mb 0.00 in0.0 mm 0.00 in0.0 mm 0.00 in0.0 mm
05:30 AM 52.0°F11.1°C 43.6°F6.4°C 73% 3.6 mph SW5.8 kmh SW 6.0 mph9.7 kmh 30.86 in1045.0 mb 0.00 in0.0 mm 0.00 in0.0 mm 0.00 in0.0 mm
05:15 AM 50.5°F10.3°C 43.9°F6.6°C 78% 5.8 mph SSE9.3 kmh SSE 11.4 mph18.3 kmh 30.85 in1044.7 mb 0.00 in0.0 mm 0.00 in0.0 mm 0.00 in0.0 mm
05:00 AM 47.5°F8.6°C 42.6°F5.9°C 83% 5.4 mph SSW8.7 kmh SSW 8.3 mph13.4 kmh 30.85 in1044.7 mb 0.00 in0.0 mm 0.00 in0.0 mm 0.00 in0.0 mm
04:45 AM 47.1°F8.4°C 42.5°F5.8°C 84% 3.2 mph SE5.1 kmh SE 5.4 mph8.7 kmh 30.85 in1044.7 mb 0.00 in0.0 mm 0.00 in0.0 mm 0.00 in0.0 mm
04:30 AM 47.1°F8.4°C 42.5°F5.8°C 84% 2.8 mph E4.5 kmh E 4.5 mph7.2 kmh 30.86 in1045.0 mb 0.00 in0.0 mm 0.00 in0.0 mm 0.00 in0.0 mm
04:15 AM 46.2°F7.9°C 42.0°F5.6°C 85% 3.4 mph ESE5.5 kmh ESE 5.4 mph8.7 kmh 30.85 in1044.7 mb 0.00 in0.0 mm 0.00 in0.0 mm 0.00 in0.0 mm
04:00 AM 46.2°F7.9°C 42.0°F5.6°C 85% 3.5 mph S5.6 kmh S 6.9 mph11.1 kmh 30.86 in1045.0 mb 0.00 in0.0 mm 0.00 in0.0 mm 0.00 in0.0 mm
03:45 AM 46.2°F7.9°C 42.0°F5.6°C 85% 2.9 mph NNE4.7 kmh NNE 4.5 mph7.2 kmh 30.86 in1045.0 mb 0.00 in0.0 mm 0.00 in0.0 mm 0.00 in0.0 mm
03:30 AM 46.2°F7.9°C 41.7°F5.4°C 84% 2.2 mph NW3.5 kmh NW 3.1 mph5.0 kmh 30.86 in1045.0 mb 0.00 in0.0 mm 0.00 in0.0 mm 0.00 in0.0 mm
03:15 AM 46.2°F7.9°C 42.0°F5.6°C 85% 2.6 mph WSW4.2 kmh WSW 4.5 mph7.2 kmh 30.85 in1044.7 mb 0.00 in0.0 mm 0.00 in0.0 mm 0.00 in0.0 mm
03:00 AM 46.2°F7.9°C 42.0°F5.6°C 85% 2.5 mph SSW4.0 kmh SSW 3.8 mph6.1 kmh 30.86 in1045.0 mb 0.00 in0.0 mm 0.00 in0.0 mm 0.00 in0.0 mm
02:45 AM 47.3°F8.5°C 42.7°F5.9°C 84% 2.5 mph S4.0 kmh S 3.8 mph6.1 kmh 30.86 in1045.0 mb 0.00 in0.0 mm 0.00 in0.0 mm 0.00 in0.0 mm
02:30 AM 47.3°F8.5°C 42.4°F5.8°C 83% 2.4 mph N3.9 kmh N 3.8 mph6.1 kmh 30.85 in1044.7 mb 0.00 in0.0 mm 0.00 in0.0 mm 0.00 in0.0 mm
02:15 AM 47.3°F8.5°C 42.4°F5.8°C 83% 2.7 mph NW4.3 kmh NW 3.8 mph6.1 kmh 30.86 in1045.0 mb 0.00 in0.0 mm 0.00 in0.0 mm 0.00 in0.0 mm
02:00 AM 47.3°F8.5°C 42.4°F5.8°C 83% 2.7 mph S4.3 kmh S 3.8 mph6.1 kmh 30.86 in1045.0 mb 0.00 in0.0 mm 0.00 in0.0 mm 0.00 in0.0 mm
01:45 AM 47.3°F8.5°C 42.4°F5.8°C 83% 3.0 mph W4.8 kmh W 6.0 mph9.7 kmh 30.85 in1044.7 mb 0.00 in0.0 mm 0.00 in0.0 mm 0.00 in0.0 mm
01:30 AM 47.5°F8.6°C 42.6°F5.9°C 83% 2.3 mph W3.7 kmh W 6.0 mph9.7 kmh 30.86 in1045.0 mb 0.00 in0.0 mm 0.00 in0.0 mm 0.00 in0.0 mm
01:15 AM 48.0°F8.9°C 42.8°F6.0°C 82% 3.1 mph NW5.0 kmh NW 6.0 mph9.7 kmh 30.86 in1045.0 mb 0.00 in0.0 mm 0.00 in0.0 mm 0.00 in0.0 mm
01:00 AM 48.7°F9.3°C 43.2°F6.2°C 81% 3.1 mph SW5.0 kmh SW 4.5 mph7.2 kmh 30.85 in1044.7 mb 0.00 in0.0 mm 0.00 in0.0 mm 0.00 in0.0 mm
12:45 AM 49.1°F9.5°C 43.5°F6.4°C 81% 3.0 mph WNW4.8 kmh WNW 5.4 mph8.7 kmh 30.85 in1044.7 mb 0.00 in0.0 mm 0.00 in0.0 mm 0.00 in0.0 mm
12:30 AM 49.5°F9.7°C 43.9°F6.6°C 81% 3.0 mph SW4.8 kmh SW 4.5 mph7.2 kmh 30.84 in1044.4 mb 0.00 in0.0 mm 0.00 in0.0 mm 0.00 in0.0 mm
12:15 AM 49.5°F9.7°C 43.9°F6.6°C 81% 2.5 mph ESE4.0 kmh ESE 5.4 mph8.7 kmh 30.85 in1044.7 mb 0.00 in0.0 mm 0.00 in0.0 mm 0.00 in0.0 mm
12:00 AM 49.6°F9.8°C 44.1°F6.7°C 81% 4.7 mph ESE7.6 kmh ESE 7.6 mph12.2 kmh 30.84 in1044.4 mb 0.00 in0.0 mm 0.00 in0.0 mm 0.00 in0.0 mm